sensor_id;sensor_type;location;lat;lon;timestamp;pressure;altitude;pressure_sealevel;temperature;humidity
20077;BME280;12348;42.710;23.378;2023-01-16T00:01:22;95084.34;;;0.11;100.00
20077;BME280;12348;42.710;23.378;2023-01-16T00:03:50;95070.28;;;0.11;100.00
20077;BME280;12348;42.710;23.378;2023-01-16T00:06:17;95072.22;;;0.04;100.00
20077;BME280;12348;42.710;23.378;2023-01-16T00:08:43;95070.03;;;0.01;100.00
20077;BME280;12348;42.710;23.378;2023-01-16T00:11:11;95066.78;;;-0.02;100.00
20077;BME280;12348;42.710;23.378;2023-01-16T00:13:39;95071.16;;;-0.07;100.00
20077;BME280;12348;42.710;23.378;2023-01-16T00:16:07;95068.38;;;-0.12;100.00
20077;BME280;12348;42.710;23.378;2023-01-16T00:18:34;95058.50;;;-0.05;100.00
20077;BME280;12348;42.710;23.378;2023-01-16T00:21:01;95068.53;;;-0.07;100.00
20077;BME280;12348;42.710;23.378;2023-01-16T00:23:28;95065.34;;;-0.16;100.00
20077;BME280;12348;42.710;23.378;2023-01-16T00:25:55;95064.28;;;-0.27;100.00
20077;BME280;12348;42.710;23.378;2023-01-16T00:28:22;95063.72;;;-0.29;100.00
20077;BME280;12348;42.710;23.378;2023-01-16T00:30:50;95059.47;;;-0.30;100.00
20077;BME280;12348;42.710;23.378;2023-01-16T00:33:17;95049.44;;;-0.28;100.00
20077;BME280;12348;42.710;23.378;2023-01-16T00:35:46;95042.53;;;-0.29;100.00
20077;BME280;12348;42.710;23.378;2023-01-16T00:38:13;95046.03;;;-0.16;100.00
20077;BME280;12348;42.710;23.378;2023-01-16T00:40:40;95048.50;;;-0.03;100.00
20077;BME280;12348;42.710;23.378;2023-01-16T00:43:07;95035.25;;;-0.15;100.00
20077;BME280;12348;42.710;23.378;2023-01-16T00:45:34;95037.97;;;-0.21;100.00
20077;BME280;12348;42.710;23.378;2023-01-16T00:48:03;95039.31;;;-0.31;100.00
20077;BME280;12348;42.710;23.378;2023-01-16T00:50:30;95032.41;;;-0.32;100.00
20077;BME280;12348;42.710;23.378;2023-01-16T00:52:57;95033.59;;;-0.46;100.00
20077;BME280;12348;42.710;23.378;2023-01-16T00:55:24;95032.13;;;-0.42;100.00
20077;BME280;12348;42.710;23.378;2023-01-16T00:57:50;95035.50;;;-0.35;100.00
20077;BME280;12348;42.710;23.378;2023-01-16T01:00:18;95030.81;;;-0.33;100.00
20077;BME280;12348;42.710;23.378;2023-01-16T01:02:46;95034.91;;;-0.07;100.00
20077;BME280;12348;42.710;23.378;2023-01-16T01:05:19;95029.34;;;0.25;100.00
20077;BME280;12348;42.710;23.378;2023-01-16T01:07:45;95019.41;;;-0.03;100.00
20077;BME280;12348;42.710;23.378;2023-01-16T01:10:12;95015.78;;;-0.20;100.00
20077;BME280;12348;42.710;23.378;2023-01-16T01:12:39;95023.00;;;-0.28;100.00
20077;BME280;12348;42.710;23.378;2023-01-16T01:15:09;95032.84;;;-0.35;100.00
20077;BME280;12348;42.710;23.378;2023-01-16T01:17:36;95025.94;;;-0.36;100.00
20077;BME280;12348;42.710;23.378;2023-01-16T01:20:03;95030.13;;;-0.28;100.00
20077;BME280;12348;42.710;23.378;2023-01-16T01:22:32;95025.88;;;-0.29;100.00
20077;BME280;12348;42.710;23.378;2023-01-16T01:24:58;95030.03;;;-0.21;100.00
20077;BME280;12348;42.710;23.378;2023-01-16T01:27:25;95020.81;;;-0.19;100.00
20077;BME280;12348;42.710;23.378;2023-01-16T01:29:52;95010.06;;;-0.06;100.00
20077;BME280;12348;42.710;23.378;2023-01-16T01:32:19;95003.97;;;-0.06;100.00
20077;BME280;12348;42.710;23.378;2023-01-16T01:34:46;95003.59;;;0.44;100.00
20077;BME280;12348;42.710;23.378;2023-01-16T01:37:12;95001.19;;;0.42;100.00
20077;BME280;12348;42.710;23.378;2023-01-16T01:39:40;95000.47;;;0.35;100.00
20077;BME280;12348;42.710;23.378;2023-01-16T01:42:09;94995.16;;;0.23;100.00
20077;BME280;12348;42.710;23.378;2023-01-16T01:45:00;94978.75;;;0.45;100.00
20077;BME280;12348;42.710;23.378;2023-01-16T01:47:30;94985.63;;;0.22;100.00
20077;BME280;12348;42.710;23.378;2023-01-16T01:50:01;94980.97;;;0.06;100.00
20077;BME280;12348;42.710;23.378;2023-01-16T01:52:29;94989.59;;;0.02;100.00
20077;BME280;12348;42.710;23.378;2023-01-16T01:55:02;94988.09;;;-0.06;100.00
20077;BME280;12348;42.710;23.378;2023-01-16T01:57:33;94993.03;;;-0.10;100.00
20077;BME280;12348;42.710;23.378;2023-01-16T02:00:06;94987.13;;;-0.23;100.00
20077;BME280;12348;42.710;23.378;2023-01-16T02:02:37;94987.16;;;-0.42;100.00
20077;BME280;12348;42.710;23.378;2023-01-16T02:05:07;94988.66;;;-0.46;100.00
20077;BME280;12348;42.710;23.378;2023-01-16T02:07:36;94978.50;;;-0.49;100.00
20077;BME280;12348;42.710;23.378;2023-01-16T02:10:10;94986.16;;;-0.41;100.00
20077;BME280;12348;42.710;23.378;2023-01-16T02:12:38;94982.19;;;-0.50;100.00
20077;BME280;12348;42.710;23.378;2023-01-16T02:15:06;94974.13;;;-0.55;100.00
20077;BME280;12348;42.710;23.378;2023-01-16T02:17:33;94980.16;;;-0.48;100.00
20077;BME280;12348;42.710;23.378;2023-01-16T02:20:19;94982.47;;;-0.40;100.00
20077;BME280;12348;42.710;23.378;2023-01-16T02:23:22;94974.53;;;-0.70;100.00
20077;BME280;12348;42.710;23.378;2023-01-16T02:26:17;94974.25;;;-0.99;100.00
20077;BME280;12348;42.710;23.378;2023-01-16T02:31:55;94956.31;;;-1.08;100.00
20077;BME280;12348;42.710;23.378;2023-01-16T02:34:39;94949.69;;;-0.99;100.00
20077;BME280;12348;42.710;23.378;2023-01-16T02:37:17;94945.13;;;-0.92;100.00
20077;BME280;12348;42.710;23.378;2023-01-16T02:39:54;94951.88;;;-0.96;100.00
20077;BME280;12348;42.710;23.378;2023-01-16T02:42:26;94953.28;;;-1.12;100.00
20077;BME280;12348;42.710;23.378;2023-01-16T02:45:00;94954.53;;;-1.14;100.00
20077;BME280;12348;42.710;23.378;2023-01-16T02:47:35;94953.72;;;-1.33;100.00
20077;BME280;12348;42.710;23.378;2023-01-16T02:50:12;94953.34;;;-1.37;100.00
20077;BME280;12348;42.710;23.378;2023-01-16T02:52:46;94951.22;;;-1.47;100.00
20077;BME280;12348;42.710;23.378;2023-01-16T02:55:25;94953.34;;;-1.55;100.00
20077;BME280;12348;42.710;23.378;2023-01-16T02:57:57;94949.00;;;-1.50;100.00
20077;BME280;12348;42.710;23.378;2023-01-16T03:00:26;94942.91;;;-1.50;100.00
20077;BME280;12348;42.710;23.378;2023-01-16T03:02:54;94936.63;;;-1.49;100.00
20077;BME280;12348;42.710;23.378;2023-01-16T03:05:21;94940.72;;;-1.53;100.00
20077;BME280;12348;42.710;23.378;2023-01-16T03:08:14;94938.69;;;-1.51;100.00
20077;BME280;12348;42.710;23.378;2023-01-16T03:11:13;94939.28;;;-1.49;100.00
20077;BME280;12348;42.710;23.378;2023-01-16T03:14:16;94934.13;;;-1.44;100.00
20077;BME280;12348;42.710;23.378;2023-01-16T03:16:59;94926.50;;;-1.52;100.00
20077;BME280;12348;42.710;23.378;2023-01-16T03:19:43;94923.50;;;-1.56;100.00
20077;BME280;12348;42.710;23.378;2023-01-16T03:22:13;94915.78;;;-1.57;100.00
20077;BME280;12348;42.710;23.378;2023-01-16T03:24:49;94922.91;;;-1.58;100.00
20077;BME280;12348;42.710;23.378;2023-01-16T03:27:31;94915.94;;;-1.71;100.00
20077;BME280;12348;42.710;23.378;2023-01-16T03:30:07;94913.28;;;-1.71;100.00
20077;BME280;12348;42.710;23.378;2023-01-16T03:32:39;94908.81;;;-1.70;100.00
20077;BME280;12348;42.710;23.378;2023-01-16T03:35:10;94901.50;;;-1.68;100.00
20077;BME280;12348;42.710;23.378;2023-01-16T03:37:44;94901.28;;;-1.66;100.00
20077;BME280;12348;42.710;23.378;2023-01-16T03:40:17;94897.59;;;-1.65;100.00
20077;BME280;12348;42.710;23.378;2023-01-16T03:42:50;94884.25;;;-1.71;100.00
20077;BME280;12348;42.710;23.378;2023-01-16T03:45:21;94882.94;;;-1.61;100.00
20077;BME280;12348;42.710;23.378;2023-01-16T03:47:54;94878.56;;;-1.67;100.00
20077;BME280;12348;42.710;23.378;2023-01-16T03:50:26;94879.28;;;-1.60;100.00
20077;BME280;12348;42.710;23.378;2023-01-16T03:52:57;94878.25;;;-1.59;100.00
20077;BME280;12348;42.710;23.378;2023-01-16T03:55:30;94872.81;;;-1.64;100.00
20077;BME280;12348;42.710;23.378;2023-01-16T03:58:01;94865.00;;;-1.71;100.00
20077;BME280;12348;42.710;23.378;2023-01-16T04:00:37;94856.84;;;-1.69;100.00
20077;BME280;12348;42.710;23.378;2023-01-16T04:03:09;94859.28;;;-1.68;100.00
20077;BME280;12348;42.710;23.378;2023-01-16T04:05:46;94861.00;;;-1.80;100.00
20077;BME280;12348;42.710;23.378;2023-01-16T04:08:16;94868.13;;;-1.81;100.00
20077;BME280;12348;42.710;23.378;2023-01-16T04:10:46;94875.38;;;-1.76;100.00
20077;BME280;12348;42.710;23.378;2023-01-16T04:13:17;94870.19;;;-1.83;100.00
20077;BME280;12348;42.710;23.378;2023-01-16T04:15:48;94870.34;;;-1.78;100.00
20077;BME280;12348;42.710;23.378;2023-01-16T04:18:15;94876.63;;;-1.79;100.00
20077;BME280;12348;42.710;23.378;2023-01-16T04:20:46;94871.88;;;-1.70;100.00
20077;BME280;12348;42.710;23.378;2023-01-16T04:23:15;94868.13;;;-1.44;100.00
20077;BME280;12348;42.710;23.378;2023-01-16T04:25:42;94868.25;;;-1.39;100.00
20077;BME280;12348;42.710;23.378;2023-01-16T04:28:09;94866.59;;;-1.52;100.00
20077;BME280;12348;42.710;23.378;2023-01-16T04:30:36;94866.97;;;-1.66;100.00
20077;BME280;12348;42.710;23.378;2023-01-16T04:33:03;94860.81;;;-1.60;100.00
20077;BME280;12348;42.710;23.378;2023-01-16T04:35:30;94856.97;;;-1.64;100.00
20077;BME280;12348;42.710;23.378;2023-01-16T04:37:59;94859.28;;;-1.68;100.00
20077;BME280;12348;42.710;23.378;2023-01-16T04:40:26;94857.88;;;-1.71;100.00
20077;BME280;12348;42.710;23.378;2023-01-16T04:42:52;94845.56;;;-1.77;100.00
20077;BME280;12348;42.710;23.378;2023-01-16T04:45:20;94851.13;;;-1.85;100.00
20077;BME280;12348;42.710;23.378;2023-01-16T04:47:47;94842.78;;;-1.82;100.00
20077;BME280;12348;42.710;23.378;2023-01-16T04:50:14;94835.78;;;-1.76;100.00
20077;BME280;12348;42.710;23.378;2023-01-16T04:52:42;94846.72;;;-1.73;100.00
20077;BME280;12348;42.710;23.378;2023-01-16T04:55:12;94848.94;;;-1.69;100.00
20077;BME280;12348;42.710;23.378;2023-01-16T04:57:39;94841.38;;;-1.66;100.00
20077;BME280;12348;42.710;23.378;2023-01-16T05:00:08;94838.16;;;-1.68;100.00
20077;BME280;12348;42.710;23.378;2023-01-16T05:02:35;94844.88;;;-1.72;100.00
20077;BME280;12348;42.710;23.378;2023-01-16T05:05:03;94841.75;;;-1.62;100.00
20077;BME280;12348;42.710;23.378;2023-01-16T05:07:30;94844.16;;;-1.61;100.00
20077;BME280;12348;42.710;23.378;2023-01-16T05:09:57;94840.94;;;-1.63;100.00
20077;BME280;12348;42.710;23.378;2023-01-16T05:12:25;94839.97;;;-1.68;100.00
20077;BME280;12348;42.710;23.378;2023-01-16T05:14:52;94844.25;;;-1.67;100.00
20077;BME280;12348;42.710;23.378;2023-01-16T05:17:19;94838.66;;;-1.59;100.00
20077;BME280;12348;42.710;23.378;2023-01-16T05:19:49;94839.53;;;-1.65;100.00
20077;BME280;12348;42.710;23.378;2023-01-16T05:22:16;94823.56;;;-1.71;100.00
20077;BME280;12348;42.710;23.378;2023-01-16T05:24:43;94818.66;;;-1.67;100.00
20077;BME280;12348;42.710;23.378;2023-01-16T05:27:10;94812.56;;;-1.67;100.00
20077;BME280;12348;42.710;23.378;2023-01-16T05:29:38;94820.25;;;-1.66;100.00
20077;BME280;12348;42.710;23.378;2023-01-16T05:32:04;94816.88;;;-1.55;100.00
20077;BME280;12348;42.710;23.378;2023-01-16T05:34:31;94821.91;;;-1.53;100.00
20077;BME280;12348;42.710;23.378;2023-01-16T05:36:58;94820.84;;;-1.45;100.00
20077;BME280;12348;42.710;23.378;2023-01-16T05:39:25;94806.97;;;-1.41;100.00
20077;BME280;12348;42.710;23.378;2023-01-16T05:41:51;94806.16;;;-1.41;100.00
20077;BME280;12348;42.710;23.378;2023-01-16T05:44:18;94801.84;;;-1.54;100.00
20077;BME280;12348;42.710;23.378;2023-01-16T05:46:47;94802.84;;;-1.37;100.00
20077;BME280;12348;42.710;23.378;2023-01-16T05:49:16;94793.69;;;-1.34;100.00
20077;BME280;12348;42.710;23.378;2023-01-16T05:51:42;94803.41;;;-1.35;100.00
20077;BME280;12348;42.710;23.378;2023-01-16T05:54:10;94799.66;;;-1.27;100.00
20077;BME280;12348;42.710;23.378;2023-01-16T05:56:37;94803.13;;;-1.27;100.00
20077;BME280;12348;42.710;23.378;2023-01-16T05:59:04;94811.44;;;-1.11;100.00
20077;BME280;12348;42.710;23.378;2023-01-16T06:01:31;94797.31;;;-1.05;100.00
20077;BME280;12348;42.710;23.378;2023-01-16T06:03:59;94799.19;;;-0.94;100.00
20077;BME280;12348;42.710;23.378;2023-01-16T06:06:26;94805.44;;;-0.88;100.00
20077;BME280;12348;42.710;23.378;2023-01-16T06:08:52;94804.28;;;-0.92;100.00
20077;BME280;12348;42.710;23.378;2023-01-16T06:11:19;94790.91;;;-0.98;100.00
20077;BME280;12348;42.710;23.378;2023-01-16T06:13:46;94790.38;;;-0.88;100.00
20077;BME280;12348;42.710;23.378;2023-01-16T06:16:13;94790.38;;;-0.88;100.00
20077;BME280;12348;42.710;23.378;2023-01-16T06:18:40;94781.66;;;-0.77;100.00
20077;BME280;12348;42.710;23.378;2023-01-16T06:21:08;94784.41;;;-0.71;100.00
20077;BME280;12348;42.710;23.378;2023-01-16T06:23:35;94782.28;;;-0.63;100.00
20077;BME280;12348;42.710;23.378;2023-01-16T06:26:02;94792.72;;;-0.56;100.00
20077;BME280;12348;42.710;23.378;2023-01-16T06:28:31;94793.41;;;-0.49;100.00
20077;BME280;12348;42.710;23.378;2023-01-16T06:30:57;94792.41;;;-0.36;100.00
20077;BME280;12348;42.710;23.378;2023-01-16T06:33:24;94794.69;;;-0.28;100.00
20077;BME280;12348;42.710;23.378;2023-01-16T06:35:51;94799.75;;;-0.03;100.00
20077;BME280;12348;42.710;23.378;2023-01-16T06:38:19;94791.34;;;0.12;100.00
20077;BME280;12348;42.710;23.378;2023-01-16T06:40:46;94806.19;;;0.13;100.00
20077;BME280;12348;42.710;23.378;2023-01-16T06:43:14;94807.81;;;0.02;100.00
20077;BME280;12348;42.710;23.378;2023-01-16T06:45:41;94810.47;;;-0.21;100.00
20077;BME280;12348;42.710;23.378;2023-01-16T06:48:10;94806.66;;;-0.26;100.00
20077;BME280;12348;42.710;23.378;2023-01-16T06:50:37;94804.72;;;-0.18;100.00
20077;BME280;12348;42.710;23.378;2023-01-16T06:53:04;94800.78;;;-0.04;100.00
20077;BME280;12348;42.710;23.378;2023-01-16T06:55:32;94784.31;;;0.17;100.00
20077;BME280;12348;42.710;23.378;2023-01-16T06:57:59;94778.09;;;0.12;100.00
20077;BME280;12348;42.710;23.378;2023-01-16T07:00:25;94773.84;;;0.22;100.00
20077;BME280;12348;42.710;23.378;2023-01-16T07:02:53;94788.72;;;0.40;100.00
20077;BME280;12348;42.710;23.378;2023-01-16T07:05:21;94782.72;;;0.57;100.00
20077;BME280;12348;42.710;23.378;2023-01-16T07:07:48;94782.69;;;0.68;100.00
20077;BME280;12348;42.710;23.378;2023-01-16T07:10:16;94774.53;;;0.87;100.00
20077;BME280;12348;42.710;23.378;2023-01-16T07:12:45;94774.06;;;0.90;100.00
20077;BME280;12348;42.710;23.378;2023-01-16T07:15:13;94787.69;;;0.82;100.00
20077;BME280;12348;42.710;23.378;2023-01-16T07:17:58;94779.22;;;0.68;100.00
20077;BME280;12348;42.710;23.378;2023-01-16T07:20:42;94782.88;;;0.79;100.00
20077;BME280;12348;42.710;23.378;2023-01-16T07:23:26;94775.00;;;0.84;100.00
20077;BME280;12348;42.710;23.378;2023-01-16T07:25:56;94787.69;;;0.82;100.00
20077;BME280;12348;42.710;23.378;2023-01-16T07:28:26;94775.00;;;0.84;100.00
20077;BME280;12348;42.710;23.378;2023-01-16T07:30:53;94774.94;;;0.95;100.00
20077;BME280;12348;42.710;23.378;2023-01-16T07:33:21;94771.03;;;1.15;100.00
20077;BME280;12348;42.710;23.378;2023-01-16T07:35:48;94780.22;;;1.24;100.00
20077;BME280;12348;42.710;23.378;2023-01-16T07:38:15;94784.28;;;1.15;100.00
20077;BME280;12348;42.710;23.378;2023-01-16T07:40:42;94775.28;;;0.99;100.00
20077;BME280;12348;42.710;23.378;2023-01-16T07:43:09;94764.88;;;0.81;100.00
20077;BME280;12348;42.710;23.378;2023-01-16T07:45:37;94759.31;;;0.65;100.00
20077;BME280;12348;42.710;23.378;2023-01-16T07:48:04;94765.00;;;0.74;100.00
20077;BME280;12348;42.710;23.378;2023-01-16T07:50:32;94763.16;;;0.75;100.00
20077;BME280;12348;42.710;23.378;2023-01-16T07:52:58;94766.13;;;0.90;100.00
20077;BME280;12348;42.710;23.378;2023-01-16T07:55:25;94753.59;;;1.02;100.00
20077;BME280;12348;42.710;23.378;2023-01-16T07:57:52;94753.03;;;1.00;100.00
20077;BME280;12348;42.710;23.378;2023-01-16T08:00:19;94746.56;;;1.25;100.00
20077;BME280;12348;42.710;23.378;2023-01-16T08:02:47;94742.13;;;1.13;100.00
20077;BME280;12348;42.710;23.378;2023-01-16T08:05:14;94732.28;;;0.97;100.00
20077;BME280;12348;42.710;23.378;2023-01-16T08:07:41;94725.22;;;1.19;100.00
20077;BME280;12348;42.710;23.378;2023-01-16T08:10:10;94729.75;;;1.36;100.00
20077;BME280;12348;42.710;23.378;2023-01-16T08:12:38;94719.69;;;1.38;100.00
20077;BME280;12348;42.710;23.378;2023-01-16T08:15:05;94727.72;;;1.60;100.00
20077;BME280;12348;42.710;23.378;2023-01-16T08:17:32;94730.56;;;1.53;100.00
20077;BME280;12348;42.710;23.378;2023-01-16T08:20:00;94735.31;;;1.90;100.00
20077;BME280;12348;42.710;23.378;2023-01-16T08:22:27;94746.88;;;2.23;100.00
20077;BME280;12348;42.710;23.378;2023-01-16T08:24:54;94745.72;;;2.13;100.00
20077;BME280;12348;42.710;23.378;2023-01-16T08:27:20;94752.34;;;2.33;100.00
20077;BME280;12348;42.710;23.378;2023-01-16T08:29:47;94746.53;;;2.36;100.00
20077;BME280;12348;42.710;23.378;2023-01-16T08:32:14;94746.00;;;2.61;100.00
20077;BME280;12348;42.710;23.378;2023-01-16T08:34:41;94737.75;;;3.11;100.00
20077;BME280;12348;42.710;23.378;2023-01-16T08:37:09;94723.09;;;3.41;100.00
20077;BME280;12348;42.710;23.378;2023-01-16T08:39:36;94714.41;;;3.19;100.00
20077;BME280;12348;42.710;23.378;2023-01-16T08:42:03;94724.28;;;3.55;100.00
20077;BME280;12348;42.710;23.378;2023-01-16T08:44:47;94707.91;;;3.79;100.00
20077;BME280;12348;42.710;23.378;2023-01-16T08:47:32;94696.28;;;3.48;100.00
20077;BME280;12348;42.710;23.378;2023-01-16T08:50:17;94697.00;;;3.38;100.00
20077;BME280;12348;42.710;23.378;2023-01-16T08:53:04;94691.25;;;3.51;100.00
20077;BME280;12348;42.710;23.378;2023-01-16T08:55:31;94689.50;;;3.72;100.00
20077;BME280;12348;42.710;23.378;2023-01-16T08:57:58;94689.38;;;3.99;100.00
20077;BME280;12348;42.710;23.378;2023-01-16T09:00:26;94697.25;;;4.31;100.00
20077;BME280;12348;42.710;23.378;2023-01-16T09:02:53;94697.06;;;4.48;100.00
20077;BME280;12348;42.710;23.378;2023-01-16T09:05:21;94696.03;;;4.59;100.00
20077;BME280;12348;42.710;23.378;2023-01-16T09:07:48;94691.72;;;4.48;100.00
20077;BME280;12348;42.710;23.378;2023-01-16T09:10:16;94684.47;;;3.81;100.00
20077;BME280;12348;42.710;23.378;2023-01-16T09:12:43;94678.19;;;3.97;100.00
20077;BME280;12348;42.710;23.378;2023-01-16T09:15:27;94677.41;;;4.02;100.00
20077;BME280;12348;42.710;23.378;2023-01-16T09:17:54;94658.16;;;4.52;100.00
20077;BME280;12348;42.710;23.378;2023-01-16T09:20:21;94671.22;;;4.59;100.00
20077;BME280;12348;42.710;23.378;2023-01-16T09:22:47;94664.56;;;4.61;100.00
20077;BME280;12348;42.710;23.378;2023-01-16T09:25:16;94659.78;;;4.84;100.00
20077;BME280;12348;42.710;23.378;2023-01-16T09:27:43;94650.19;;;4.88;100.00
20077;BME280;12348;42.710;23.378;2023-01-16T09:30:12;94647.00;;;4.91;100.00
20077;BME280;12348;42.710;23.378;2023-01-16T09:32:39;94645.88;;;4.41;100.00
20077;BME280;12348;42.710;23.378;2023-01-16T09:35:06;94645.94;;;4.82;100.00
20077;BME280;12348;42.710;23.378;2023-01-16T09:37:33;94633.41;;;4.98;100.00
20077;BME280;12348;42.710;23.378;2023-01-16T09:40:00;94627.22;;;5.48;100.00
20077;BME280;12348;42.710;23.378;2023-01-16T09:42:46;94632.03;;;5.51;100.00
20077;BME280;12348;42.710;23.378;2023-01-16T09:45:35;94637.34;;;5.72;100.00
20077;BME280;12348;42.710;23.378;2023-01-16T09:48:07;94623.34;;;6.11;100.00
20077;BME280;12348;42.710;23.378;2023-01-16T09:50:38;94621.19;;;6.18;100.00
20077;BME280;12348;42.710;23.378;2023-01-16T09:53:11;94617.41;;;6.24;100.00
20077;BME280;12348;42.710;23.378;2023-01-16T09:56:00;94610.31;;;6.93;100.00
20077;BME280;12348;42.710;23.378;2023-01-16T09:59:00;94610.91;;;6.79;100.00
20077;BME280;12348;42.710;23.378;2023-01-16T10:01:32;94612.44;;;6.51;100.00
20077;BME280;12348;42.710;23.378;2023-01-16T10:04:11;94611.25;;;6.23;100.00
20077;BME280;12348;42.710;23.378;2023-01-16T10:06:49;94603.88;;;6.00;100.00
20077;BME280;12348;42.710;23.378;2023-01-16T10:09:25;94591.50;;;6.64;100.00
20077;BME280;12348;42.710;23.378;2023-01-16T10:11:58;94590.84;;;6.82;100.00
20077;BME280;12348;42.710;23.378;2023-01-16T10:14:38;94577.50;;;6.38;100.00
20077;BME280;12348;42.710;23.378;2023-01-16T10:17:17;94564.28;;;7.25;100.00
20077;BME280;12348;42.710;23.378;2023-01-16T10:20:01;94563.81;;;7.42;100.00
20077;BME280;12348;42.710;23.378;2023-01-16T10:22:41;94555.28;;;7.11;100.00
20077;BME280;12348;42.710;23.378;2023-01-16T10:25:19;94561.94;;;7.13;100.00
20077;BME280;12348;42.710;23.378;2023-01-16T10:27:56;94544.19;;;6.93;100.00
20077;BME280;12348;42.710;23.378;2023-01-16T10:30:31;94553.72;;;6.36;100.00
20077;BME280;12348;42.710;23.378;2023-01-16T10:33:05;94548.94;;;5.63;100.00
20077;BME280;12348;42.710;23.378;2023-01-16T10:35:38;94545.00;;;5.40;100.00
20077;BME280;12348;42.710;23.378;2023-01-16T10:38:20;94537.88;;;5.00;100.00
20077;BME280;12348;42.710;23.378;2023-01-16T10:40:51;94542.19;;;4.80;100.00
20077;BME280;12348;42.710;23.378;2023-01-16T10:43:27;94532.03;;;4.88;100.00
20077;BME280;12348;42.710;23.378;2023-01-16T10:46:19;94526.19;;;4.80;100.00
20077;BME280;12348;42.710;23.378;2023-01-16T10:49:04;94519.25;;;4.90;100.00
20077;BME280;12348;42.710;23.378;2023-01-16T10:51:50;94514.41;;;5.02;100.00
20077;BME280;12348;42.710;23.378;2023-01-16T10:54:17;94518.97;;;4.66;100.00
20077;BME280;12348;42.710;23.378;2023-01-16T10:56:44;94486.97;;;4.55;100.00
20077;BME280;12348;42.710;23.378;2023-01-16T10:59:11;94479.53;;;4.68;100.00
20077;BME280;12348;42.710;23.378;2023-01-16T11:01:41;94477.94;;;4.61;100.00
20077;BME280;12348;42.710;23.378;2023-01-16T11:04:10;94462.22;;;4.60;100.00
20077;BME280;12348;42.710;23.378;2023-01-16T11:06:37;94454.44;;;4.79;100.00
20077;BME280;12348;42.710;23.378;2023-01-16T11:09:16;94464.63;;;4.31;100.00
20077;BME280;12348;42.710;23.378;2023-01-16T11:11:47;94447.56;;;4.27;100.00
20077;BME280;12348;42.710;23.378;2023-01-16T11:14:35;94455.56;;;4.32;100.00
20077;BME280;12348;42.710;23.378;2023-01-16T11:17:26;94442.22;;;4.47;100.00
20077;BME280;12348;42.710;23.378;2023-01-16T11:20:14;94433.66;;;4.66;100.00
20077;BME280;12348;42.710;23.378;2023-01-16T11:22:45;94431.03;;;4.50;100.00
20077;BME280;12348;42.710;23.378;2023-01-16T11:25:15;94432.63;;;4.36;100.00
20077;BME280;12348;42.710;23.378;2023-01-16T11:27:46;94442.50;;;4.46;100.00
20077;BME280;12348;42.710;23.378;2023-01-16T11:30:18;94441.41;;;4.36;100.00
20077;BME280;12348;42.710;23.378;2023-01-16T11:32:48;94447.56;;;4.37;100.00
20077;BME280;12348;42.710;23.378;2023-01-16T11:35:17;94439.56;;;4.32;100.00
20077;BME280;12348;42.710;23.378;2023-01-16T11:37:48;94449.16;;;4.38;100.00
20077;BME280;12348;42.710;23.378;2023-01-16T11:40:18;94439.56;;;4.32;100.00
20077;BME280;12348;42.710;23.378;2023-01-16T11:42:55;94428.63;;;4.38;100.00
20077;BME280;12348;42.710;23.378;2023-01-16T11:45:43;94429.13;;;4.66;100.00
20077;BME280;12348;42.710;23.378;2023-01-16T11:48:36;94417.28;;;5.03;100.00
20077;BME280;12348;42.710;23.378;2023-01-16T11:51:05;94407.28;;;5.39;100.00
20077;BME280;12348;42.710;23.378;2023-01-16T11:53:34;94392.34;;;5.33;100.00
20077;BME280;12348;42.710;23.378;2023-01-16T11:56:25;94403.03;;;5.38;100.00
20077;BME280;12348;42.710;23.378;2023-01-16T11:59:05;94394.44;;;5.46;100.00
20077;BME280;12348;42.710;23.378;2023-01-16T12:01:47;94382.56;;;5.68;100.00
20077;BME280;12348;42.710;23.378;2023-01-16T12:04:38;94385.25;;;5.63;100.00
20077;BME280;12348;42.710;23.378;2023-01-16T12:07:37;94383.06;;;5.70;100.00
20077;BME280;12348;42.710;23.378;2023-01-16T12:10:15;94377.66;;;5.80;100.00
20077;BME280;12348;42.710;23.378;2023-01-16T12:12:52;94385.47;;;6.11;100.00
20077;BME280;12348;42.710;23.378;2023-01-16T12:15:50;94373.22;;;6.10;100.00
20077;BME280;12348;42.710;23.378;2023-01-16T12:18:31;94359.28;;;6.13;100.00
20077;BME280;12348;42.710;23.378;2023-01-16T12:21:08;94359.91;;;5.99;100.00
20077;BME280;12348;42.710;23.378;2023-01-16T12:23:49;94369.38;;;5.81;100.00
20077;BME280;12348;42.710;23.378;2023-01-16T12:26:23;94366.06;;;6.00;100.00
20077;BME280;12348;42.710;23.378;2023-01-16T12:29:16;94335.56;;;5.67;100.00
20077;BME280;12348;42.710;23.378;2023-01-16T12:31:55;94341.53;;;5.48;100.00
20077;BME280;12348;42.710;23.378;2023-01-16T12:34:44;94349.19;;;5.21;100.00
20077;BME280;12348;42.710;23.378;2023-01-16T12:37:32;94331.34;;;5.16;100.00
20077;BME280;12348;42.710;23.378;2023-01-16T12:40:17;94320.84;;;4.75;100.00
20077;BME280;12348;42.710;23.378;2023-01-16T12:42:53;94329.09;;;4.79;100.00
20077;BME280;12348;42.710;23.378;2023-01-16T12:45:45;94340.06;;;4.72;100.00
20077;BME280;12348;42.710;23.378;2023-01-16T12:48:29;94320.38;;;4.63;100.00
20077;BME280;12348;42.710;23.378;2023-01-16T12:51:13;94320.66;;;4.56;100.00
20077;BME280;12348;42.710;23.378;2023-01-16T12:54:07;94313.97;;;4.64;100.00
20077;BME280;12348;42.710;23.378;2023-01-16T12:56:44;94311.53;;;4.73;100.00
20077;BME280;12348;42.710;23.378;2023-01-16T12:59:17;94301.13;;;4.71;100.00
20077;BME280;12348;42.710;23.378;2023-01-16T13:01:47;94301.03;;;4.92;100.00
20077;BME280;12348;42.710;23.378;2023-01-16T13:04:22;94295.16;;;4.95;100.00
20077;BME280;12348;42.710;23.378;2023-01-16T13:06:51;94293.81;;;4.92;100.00
20077;BME280;12348;42.710;23.378;2023-01-16T13:09:22;94304.00;;;4.85;100.00
20077;BME280;12348;42.710;23.378;2023-01-16T13:11:59;94276.09;;;4.67;100.00
20077;BME280;12348;42.710;23.378;2023-01-16T13:14:47;94282.78;;;4.59;100.00